Summerland, California
Current Conditions -  °F | °C
As of 7:53 PM on Thursday 27 Nov 2014 (Local Time) from KSBA Reporting Station
Clear Clear  
Wind Chill: 57°   Ceiling: Unl
Heat Index: 57°   Visibility: 10mi
Dew Point: 45°   Wind: 3mph
Humidity: 64%   Direction: 60°ENE
Pressure: 30"   Gusts: NA
Location:  34.42°N, 119.6°W
Report Text: KSBA 280353Z 06003KT 10SM CLR 14/07 A3000 RMK AO2 SLP158 T01390072
Loading
Personal Weather Stations






























Interactive Weather Map New forecast layout! Learn more

10-Day Weather Forecast

Advertisements
Track Severe Weather on mobile